Time;durP1;ratioP1;P1;durP2;ratioP2;P2;SDS_P1;SDS_P2;PMS_P1;PMS_P2;Temp;Humidity;BMP_temperature;BMP_pressure;BME280_temperature;BME280_humidity;BME280_pressure;Samples;Min_cycle;Max_cycle;Signal;HPM_P1;HPM_P2
2022/06/20 00:00:20;;;;;;;8.03;5.20;;;25.60;69.60;;;;;;5066988;28;20531;-70
2022/06/20 00:02:54;;;;;;;7.83;5.53;;;25.60;69.60;;;;;;5066098;28;20580;-69
2022/06/20 00:05:24;;;;;;;7.40;5.53;;;25.60;69.60;;;;;;5064598;28;20445;-70
2022/06/20 00:07:51;;;;;;;6.97;4.63;;;25.60;69.60;;;;;;5068423;28;20456;-70
2022/06/20 00:10:19;;;;;;;6.03;5.10;;;25.60;69.40;;;;;;5069126;28;20539;-70
2022/06/20 00:12:46;;;;;;;4.83;4.20;;;25.70;69.60;;;;;;5067708;28;20502;-69
2022/06/20 00:15:22;;;;;;;5.47;4.97;;;25.70;69.60;;;;;;5050657;28;20453;-68
2022/06/20 00:17:47;;;;;;;4.80;4.30;;;25.60;69.60;;;;;;5067732;28;20488;-69
2022/06/20 00:20:14;;;;;;;7.30;4.80;;;25.60;69.70;;;;;;5071193;28;20468;-70
2022/06/20 00:22:40;;;;;;;7.17;4.87;;;25.60;69.50;;;;;;5071476;28;20230;-69
2022/06/20 00:25:06;;;;;;;6.73;5.20;;;25.50;69.70;;;;;;5063709;28;20826;-70
2022/06/20 00:27:32;;;;;;;9.37;5.17;;;25.50;69.70;;;;;;5065888;28;20242;-69
2022/06/20 00:29:57;;;;;;;7.30;5.30;;;25.50;69.80;;;;;;5070766;28;20534;-70
2022/06/20 00:32:23;;;;;;;12.90;5.23;;;25.50;69.80;;;;;;5070899;28;20225;-70
2022/06/20 00:34:49;;;;;;;7.73;5.20;;;25.50;69.90;;;;;;5069510;28;20218;-69
2022/06/20 00:37:18;;;;;;;5.80;4.70;;;25.40;70.00;;;;;;5071847;28;20225;-70
2022/06/20 00:39:45;;;;;;;6.30;5.10;;;25.30;70.10;;;;;;5053983;28;20220;-70
2022/06/20 00:42:11;;;;;;;8.67;5.20;;;25.30;70.40;;;;;;5051229;28;20465;-69
2022/06/20 00:44:43;;;;;;;5.57;5.03;;;25.20;70.40;;;;;;5065938;28;20510;-69
2022/06/20 00:47:18;;;;;;;6.80;4.30;;;25.00;71.30;;;;;;5072343;28;20241;-69
2022/06/20 00:49:51;;;;;;;10.37;6.17;;;24.90;71.70;;;;;;5070115;28;20794;-70
2022/06/20 00:52:40;;;;;;;7.37;4.97;;;24.70;72.30;;;;;;5071463;28;20480;-70
2022/06/20 00:55:38;;;;;;;10.20;4.80;;;24.50;73.10;;;;;;5069390;28;20449;-70
2022/06/20 00:58:47;;;;;;;5.30;4.57;;;24.40;73.60;;;;;;5051562;28;20449;-69
2022/06/20 01:01:15;;;;;;;5.67;4.23;;;24.20;73.90;;;;;;5067437;28;20855;-69
2022/06/20 01:03:47;;;;;;;5.20;4.70;;;24.10;74.30;;;;;;5071134;28;20449;-69
2022/06/20 01:06:20;;;;;;;5.50;4.07;;;24.00;74.70;;;;;;5070448;28;20444;-70
2022/06/20 01:09:02;;;;;;;5.47;4.20;;;24.00;74.90;;;;;;5068799;28;21509;-69
2022/06/20 01:11:53;;;;;;;4.77;4.23;;;24.00;75.00;;;;;;5071241;28;21007;-70
2022/06/20 01:14:35;;;;;;;4.40;4.00;;;23.80;75.10;;;;;;5065634;28;20460;-70
2022/06/20 01:17:06;;;;;;;5.00;4.50;;;23.60;76.40;;;;;;5070362;28;20518;-69
2022/06/20 01:19:47;;;;;;;5.40;4.10;;;23.50;76.30;;;;;;5071469;28;20461;-69
2022/06/20 01:22:27;;;;;;;7.73;4.27;;;23.40;76.30;;;;;;5069213;28;20480;-69
2022/06/20 01:25:05;;;;;;;6.43;3.97;;;23.30;76.30;;;;;;5071004;28;20508;-69
2022/06/20 01:27:38;;;;;;;7.40;4.30;;;23.20;76.40;;;;;;5067091;28;21078;-69
2022/06/20 01:30:05;;;;;;;4.63;2.90;;;23.10;76.10;;;;;;5052989;28;20510;-69
2022/06/20 01:32:31;;;;;;;5.33;4.10;;;23.00;75.80;;;;;;5058650;28;20461;-69
2022/06/20 01:34:59;;;;;;;4.97;3.30;;;22.80;75.90;;;;;;5065688;28;20455;-70
2022/06/20 01:37:27;;;;;;;7.00;3.30;;;22.60;75.90;;;;;;5069172;28;20457;-69
2022/06/20 01:39:56;;;;;;;8.77;3.70;;;22.60;76.20;;;;;;5052096;28;20457;-69
2022/06/20 01:42:23;;;;;;;5.90;3.60;;;22.50;76.10;;;;;;5067661;28;20493;-71
2022/06/20 01:47:54;;;;;;;6.63;3.30;;;22.40;76.00;;;;;;5070729;28;21022;-69
2022/06/20 01:50:21;;;;;;;8.47;4.20;;;22.20;75.80;;;;;;5066268;28;20482;-70
2022/06/20 01:52:46;;;;;;;4.10;3.37;;;22.10;75.90;;;;;;5043576;28;20929;-70
2022/06/20 01:55:20;;;;;;;6.00;3.50;;;22.10;76.20;;;;;;5048874;28;20457;-69
2022/06/20 01:57:48;;;;;;;7.67;3.73;;;22.00;76.10;;;;;;5069902;28;20214;-68
2022/06/20 02:00:24;;;;;;;7.10;3.30;;;22.00;76.20;;;;;;5053112;28;20507;-69
2022/06/20 02:03:01;;;;;;;3.77;3.37;;;22.10;76.10;;;;;;5064657;28;20530;-70
2022/06/20 02:05:29;;;;;;;4.37;3.27;;;22.10;76.00;;;;;;5052731;28;20456;-69
2022/06/20 02:08:00;;;;;;;5.00;3.20;;;22.20;75.70;;;;;;5068466;28;20454;-69
2022/06/20 02:10:36;;;;;;;5.80;4.00;;;22.20;75.70;;;;;;5069206;28;20456;-69
2022/06/20 02:13:02;;;;;;;4.70;3.40;;;22.20;75.80;;;;;;5069270;28;20463;-69
2022/06/20 02:15:31;;;;;;;4.03;3.60;;;22.30;75.70;;;;;;5067298;28;20463;-71
2022/06/20 02:18:01;;;;;;;10.23;3.37;;;22.40;75.00;;;;;;5068219;28;20457;-69
2022/06/20 02:20:31;;;;;;;3.43;3.00;;;22.50;75.20;;;;;;5072346;28;20461;-70
2022/06/20 02:22:58;;;;;;;6.03;3.40;;;22.50;75.10;;;;;;5070903;28;20461;-70
2022/06/20 02:25:33;;;;;;;3.57;3.27;;;22.50;75.00;;;;;;5067969;28;20595;-70
2022/06/20 02:28:11;;;;;;;7.83;3.93;;;22.40;75.20;;;;;;5069843;28;20472;-70
2022/06/20 02:30:38;;;;;;;3.70;3.30;;;22.50;75.20;;;;;;5061342;28;20453;-70
2022/06/20 02:33:30;;;;;;;3.57;3.27;;;22.60;75.30;;;;;;5070426;28;20454;-69
2022/06/20 02:36:00;;;;;;;4.07;3.43;;;22.50;75.40;;;;;;5067218;28;20510;-69
2022/06/20 02:38:27;;;;;;;4.20;3.30;;;22.40;75.40;;;;;;5050184;28;20977;-69
2022/06/20 02:40:56;;;;;;;5.20;3.30;;;22.50;75.50;;;;;;5047178;28;20460;-70
2022/06/20 02:43:39;;;;;;;9.60;4.00;;;22.50;75.40;;;;;;5066877;28;21003;-70
2022/06/20 02:46:10;;;;;;;6.03;3.43;;;22.60;75.50;;;;;;5068589;28;20457;-70
2022/06/20 02:48:38;;;;;;;3.17;2.97;;;22.60;75.00;;;;;;5063926;28;20445;-70
2022/06/20 02:51:07;;;;;;;6.40;3.53;;;22.70;74.90;;;;;;5069125;28;20448;-68
2022/06/20 02:53:47;;;;;;;6.40;3.83;;;22.80;74.60;;;;;;5048991;28;20445;-69
2022/06/20 02:56:17;;;;;;;3.37;3.07;;;22.70;74.80;;;;;;5059604;28;20450;-70
2022/06/20 02:58:47;;;;;;;6.77;3.47;;;22.80;74.60;;;;;;5050718;28;20490;-70
2022/06/20 03:01:19;;;;;;;8.13;4.10;;;22.80;73.80;;;;;;5051722;28;20492;-69
2022/06/20 03:03:48;;;;;;;5.20;3.53;;;22.80;74.30;;;;;;5051741;28;20516;-70
2022/06/20 03:06:42;;;;;;;4.80;3.80;;;22.90;74.30;;;;;;5067713;28;20812;-70
2022/06/20 03:09:13;;;;;;;5.47;3.90;;;22.90;74.20;;;;;;5067865;28;20440;-70
2022/06/20 03:11:39;;;;;;;4.20;3.77;;;22.90;74.20;;;;;;5068186;28;20480;-69
2022/06/20 03:14:10;;;;;;;5.73;3.77;;;22.80;74.10;;;;;;5069117;28;20965;-70
2022/06/20 03:16:39;;;;;;;3.67;3.37;;;22.90;73.90;;;;;;5061877;28;20462;-70
2022/06/20 03:19:10;;;;;;;10.67;3.87;;;22.90;73.40;;;;;;5065877;28;20457;-68
2022/06/20 03:21:39;;;;;;;6.70;4.13;;;22.90;74.70;;;;;;5066275;28;20475;-69
2022/06/20 03:24:06;;;;;;;4.10;3.70;;;22.90;74.00;;;;;;5066748;28;20459;-70
2022/06/20 03:26:33;;;;;;;6.40;3.80;;;23.00;73.40;;;;;;5049572;28;20448;-70
2022/06/20 03:28:59;;;;;;;4.00;3.60;;;23.00;73.90;;;;;;5041236;28;20536;-69
2022/06/20 03:31:26;;;;;;;5.23;3.50;;;23.00;73.70;;;;;;5055703;28;20557;-69
2022/06/20 03:33:51;;;;;;;6.00;3.40;;;23.00;73.50;;;;;;5054317;28;20230;-69
2022/06/20 03:36:24;;;;;;;4.63;3.50;;;23.00;72.90;;;;;;5056067;28;20458;-69
2022/06/20 03:38:50;;;;;;;4.83;3.27;;;23.00;73.00;;;;;;5064148;28;20223;-70
2022/06/20 03:41:21;;;;;;;4.33;4.03;;;23.00;72.70;;;;;;5050002;28;20469;-70
2022/06/20 03:43:57;;;;;;;6.10;3.40;;;23.00;73.10;;;;;;5066996;28;20444;-70
2022/06/20 03:46:30;;;;;;;3.67;3.07;;;23.00;73.40;;;;;;5054348;28;20460;-70
2022/06/20 03:49:04;;;;;;;9.80;4.93;;;23.00;73.20;;;;;;5063572;28;20510;-69
2022/06/20 03:51:38;;;;;;;7.60;4.10;;;23.00;73.20;;;;;;5068316;28;20506;-69
2022/06/20 03:54:12;;;;;;;4.33;3.70;;;23.00;72.80;;;;;;5063279;28;21056;-69
2022/06/20 03:56:47;;;;;;;3.37;3.10;;;23.00;73.00;;;;;;5052567;28;20444;-69
2022/06/20 03:59:22;;;;;;;5.53;3.53;;;23.00;73.00;;;;;;5066699;28;20452;-68
2022/06/20 04:02:07;;;;;;;3.73;3.27;;;23.00;73.40;;;;;;5051005;28;20472;-69
2022/06/20 04:04:59;;;;;;;5.20;3.67;;;23.00;73.20;;;;;;5067392;28;20999;-69
2022/06/20 04:07:46;;;;;;;3.63;3.33;;;23.00;74.10;;;;;;5067094;28;20472;-69
2022/06/20 04:13:26;;;;;;;5.07;4.00;;;22.90;73.50;;;;;;5068415;28;20488;-69
2022/06/20 04:15:59;;;;;;;8.50;3.60;;;23.00;73.50;;;;;;5047431;28;20891;-69
2022/06/20 04:18:36;;;;;;;4.97;3.60;;;23.00;73.40;;;;;;5064471;28;20460;-70
2022/06/20 04:21:28;;;;;;;4.37;3.50;;;22.90;73.60;;;;;;5069490;28;20510;-69
2022/06/20 04:24:12;;;;;;;6.60;4.10;;;23.00;73.80;;;;;;5064642;28;20512;-70
2022/06/20 04:26:48;;;;;;;4.90;3.87;;;22.90;73.90;;;;;;5055066;28;20978;-70
2022/06/20 04:29:30;;;;;;;5.27;4.03;;;22.80;74.70;;;;;;5064236;28;20440;-69
2022/06/20 04:32:13;;;;;;;4.40;4.00;;;22.70;75.00;;;;;;5051822;28;20451;-70
2022/06/20 04:34:44;;;;;;;6.17;3.93;;;22.60;75.60;;;;;;5063141;28;20532;-70
2022/06/20 04:37:43;;;;;;;10.27;3.53;;;22.60;75.70;;;;;;5063243;28;20460;-70
2022/06/20 04:40:31;;;;;;;4.73;3.60;;;22.60;76.20;;;;;;5063497;28;20461;-70
2022/06/20 04:43:15;;;;;;;7.80;3.83;;;22.50;76.20;;;;;;5048919;28;20518;-70
2022/06/20 04:45:44;;;;;;;5.33;3.43;;;22.40;76.70;;;;;;5056727;28;20557;-69
2022/06/20 04:48:21;;;;;;;7.93;3.10;;;22.40;76.70;;;;;;5068514;28;20456;-70
2022/06/20 04:50:49;;;;;;;4.80;3.07;;;22.40;77.40;;;;;;5067815;28;20973;-70
2022/06/20 04:53:20;;;;;;;4.53;3.53;;;22.30;77.80;;;;;;5069004;28;20453;-70
2022/06/20 04:55:53;;;;;;;6.07;3.13;;;22.30;77.70;;;;;;5068103;28;20502;-70
2022/06/20 04:58:23;;;;;;;4.17;3.40;;;22.40;77.30;;;;;;5058402;28;20468;-70
2022/06/20 05:00:52;;;;;;;3.90;3.30;;;22.50;77.10;;;;;;5049941;28;20453;-71
2022/06/20 05:03:21;;;;;;;3.40;2.90;;;22.50;77.00;;;;;;5047846;28;20482;-71
2022/06/20 05:05:50;;;;;;;5.07;2.90;;;22.40;78.00;;;;;;5069621;28;20448;-68
2022/06/20 05:08:31;;;;;;;6.43;3.60;;;22.40;79.20;;;;;;5071853;28;20489;-68
2022/06/20 05:11:06;;;;;;;3.70;2.97;;;22.30;79.90;;;;;;5070904;28;20453;-69
2022/06/20 05:13:54;;;;;;;3.50;2.70;;;22.10;79.80;;;;;;5069480;28;20535;-68
2022/06/20 05:16:27;;;;;;;4.33;3.00;;;22.00;80.00;;;;;;5071450;28;20957;-68
2022/06/20 05:18:57;;;;;;;3.10;2.90;;;22.00;81.30;;;;;;5070418;28;20481;-70
2022/06/20 05:21:31;;;;;;;3.50;2.93;;;22.10;79.60;;;;;;5071722;28;20544;-70
2022/06/20 05:24:06;;;;;;;3.70;3.10;;;22.20;80.20;;;;;;5064984;28;20534;-69
2022/06/20 05:26:35;;;;;;;3.00;2.80;;;22.20;79.40;;;;;;5048886;28;20460;-69
2022/06/20 05:29:06;;;;;;;3.10;2.70;;;22.20;79.70;;;;;;5066532;28;20471;-69
2022/06/20 05:31:37;;;;;;;2.50;2.30;;;22.20;80.20;;;;;;5067821;28;20450;-71
2022/06/20 05:34:30;;;;;;;3.00;2.60;;;22.10;80.40;;;;;;5070198;28;20976;-70
2022/06/20 05:37:22;;;;;;;3.43;3.13;;;22.10;81.40;;;;;;5062441;28;20925;-70
2022/06/20 05:40:03;;;;;;;3.27;3.00;;;22.00;81.60;;;;;;5063520;28;20441;-70
2022/06/20 05:42:29;;;;;;;5.03;3.10;;;22.00;82.00;;;;;;5063323;28;20819;-70
2022/06/20 05:44:55;;;;;;;4.77;3.20;;;22.00;81.30;;;;;;5049071;28;20474;-70
2022/06/20 05:47:34;;;;;;;4.03;3.60;;;22.10;81.40;;;;;;5059530;28;20254;-70
2022/06/20 05:50:05;;;;;;;4.50;3.27;;;22.10;81.70;;;;;;5061516;28;21032;-70
2022/06/20 05:52:31;;;;;;;5.57;3.10;;;22.20;81.90;;;;;;5063369;28;20464;-71
2022/06/20 05:55:23;;;;;;;3.23;3.03;;;22.10;81.90;;;;;;5067115;28;20446;-70
2022/06/20 05:57:50;;;;;;;5.27;3.23;;;22.10;81.80;;;;;;5061772;28;20461;-70
2022/06/20 06:00:16;;;;;;;4.97;2.30;;;22.20;80.70;;;;;;5064913;28;20441;-70
2022/06/20 06:02:57;;;;;;;5.27;2.80;;;22.20;80.90;;;;;;5068529;28;20461;-71
2022/06/20 06:05:35;;;;;;;5.67;2.97;;;22.30;80.90;;;;;;5059775;28;20449;-69
2022/06/20 06:08:04;;;;;;;7.20;3.40;;;22.30;81.90;;;;;;5066372;28;20827;-69
2022/06/20 06:10:46;;;;;;;3.40;3.10;;;22.30;83.50;;;;;;5067582;28;20806;-70
2022/06/20 06:13:20;;;;;;;6.93;2.63;;;22.20;83.80;;;;;;5046805;28;20488;-70
2022/06/20 06:18:46;;;;;;;2.93;2.40;;;22.20;83.60;;;;;;5044167;28;20454;-71
2022/06/20 06:21:12;;;;;;;4.90;3.03;;;22.30;84.40;;;;;;5058299;28;20482;-68
2022/06/20 06:23:38;;;;;;;2.80;2.60;;;22.30;85.10;;;;;;5046487;28;20445;-70
2022/06/20 06:26:04;;;;;;;3.03;2.77;;;22.30;85.90;;;;;;5058770;28;20479;-71
2022/06/20 06:28:31;;;;;;;10.17;2.90;;;22.20;86.50;;;;;;5060380;28;20457;-71
2022/06/20 06:30:57;;;;;;;3.20;3.00;;;22.20;87.30;;;;;;5057732;28;20713;-71
2022/06/20 06:33:37;;;;;;;5.03;2.90;;;22.10;88.70;;;;;;5061369;28;20450;-70
2022/06/20 06:36:11;;;;;;;2.80;2.60;;;22.00;89.40;;;;;;5066252;28;20275;-69
2022/06/20 06:39:01;;;;;;;3.00;2.80;;;21.90;89.90;;;;;;5065382;28;20457;-70
2022/06/20 06:41:34;;;;;;;2.97;2.80;;;21.90;90.20;;;;;;5062003;28;20486;-71
2022/06/20 06:44:04;;;;;;;2.80;2.60;;;21.90;89.80;;;;;;5061513;28;20629;-72
2022/06/20 06:46:53;;;;;;;8.60;3.13;;;22.00;89.50;;;;;;5062301;28;20855;-71
2022/06/20 06:49:27;;;;;;;7.03;3.00;;;22.10;88.80;;;;;;5063045;28;20458;-70
2022/06/20 06:52:16;;;;;;;4.50;3.43;;;22.10;89.10;;;;;;5048028;28;20461;-70
2022/06/20 06:54:42;;;;;;;3.27;2.93;;;22.20;89.70;;;;;;5057629;28;20448;-71
2022/06/20 06:57:22;;;;;;;3.20;2.90;;;22.20;90.00;;;;;;5059132;28;20446;-70
2022/06/20 07:00:04;;;;;;;2.83;2.63;;;22.20;90.20;;;;;;5046114;28;20219;-70
2022/06/20 07:02:38;;;;;;;3.07;2.70;;;22.20;90.00;;;;;;5047259;28;20474;-70
2022/06/20 07:05:31;;;;;;;3.13;2.80;;;22.20;88.40;;;;;;5059364;28;20546;-70
2022/06/20 07:08:13;;;;;;;3.60;3.00;;;22.20;88.80;;;;;;5063779;28;21019;-70
2022/06/20 07:10:44;;;;;;;3.40;2.80;;;22.30;88.30;;;;;;5044518;28;20976;-70
2022/06/20 07:13:26;;;;;;;2.87;2.67;;;22.30;90.00;;;;;;5061544;28;20458;-71
2022/06/20 07:15:55;;;;;;;3.30;3.00;;;22.20;90.10;;;;;;5059296;28;20470;-70
2022/06/20 07:18:39;;;;;;;2.43;2.23;;;22.30;88.80;;;;;;5060297;28;20455;-70
2022/06/20 07:21:05;;;;;;;3.60;3.30;;;22.30;89.20;;;;;;5055732;28;20468;-71
2022/06/20 07:23:31;;;;;;;7.80;3.30;;;22.30;90.60;;;;;;5062916;28;20449;-70
2022/06/20 07:25:57;;;;;;;3.67;2.93;;;22.30;90.00;;;;;;5055836;28;20447;-70
2022/06/20 07:28:29;;;;;;;3.50;2.63;;;22.30;89.70;;;;;;5055597;28;20222;-71
2022/06/20 07:31:14;;;;;;;3.23;2.93;;;22.30;89.20;;;;;;5054529;28;20218;-70
2022/06/20 07:33:57;;;;;;;3.57;2.97;;;22.40;88.70;;;;;;5056570;28;20964;-71
2022/06/20 07:36:32;;;;;;;2.80;2.60;;;22.30;89.10;;;;;;5060198;28;20524;-71
2022/06/20 07:39:12;;;;;;;4.13;2.57;;;22.40;89.00;;;;;;5056385;28;20507;-70
2022/06/20 07:41:39;;;;;;;3.47;2.57;;;22.30;89.60;;;;;;5050077;28;20484;-70
2022/06/20 07:44:11;;;;;;;2.80;2.70;;;22.30;90.30;;;;;;5059542;28;20453;-70
2022/06/20 07:46:46;;;;;;;4.17;2.90;;;22.20;90.90;;;;;;5051171;28;20449;-70
2022/06/20 07:49:20;;;;;;;3.20;2.90;;;22.00;91.50;;;;;;5067229;28;20452;-71
2022/06/20 07:51:51;;;;;;;3.13;2.90;;;21.90;91.50;;;;;;5054476;28;20436;-70
2022/06/20 07:54:24;;;;;;;2.80;2.60;;;21.90;92.00;;;;;;5055448;28;20511;-70
2022/06/20 07:57:16;;;;;;;2.30;2.20;;;21.80;92.10;;;;;;5055402;28;20451;-70
2022/06/20 08:00:10;;;;;;;6.00;2.90;;;21.80;92.20;;;;;;5068565;28;20453;-71
2022/06/20 08:02:40;;;;;;;3.30;3.00;;;21.70;92.60;;;;;;5040129;28;20873;-70
2022/06/20 08:05:09;;;;;;;2.70;2.50;;;21.70;92.70;;;;;;5053682;28;20457;-71
2022/06/20 08:07:42;;;;;;;3.50;3.20;;;21.70;92.80;;;;;;5054977;28;20984;-70
2022/06/20 08:10:17;;;;;;;3.10;2.67;;;21.70;92.90;;;;;;5056223;28;20453;-70
2022/06/20 08:13:07;;;;;;;2.80;2.60;;;21.60;93.10;;;;;;5057239;28;20452;-71
2022/06/20 08:16:10;;;;;;;2.17;2.07;;;21.50;93.10;;;;;;5061427;28;20457;-71
2022/06/20 08:18:36;;;;;;;2.10;1.97;;;21.50;93.10;;;;;;5053155;28;20825;-70
2022/06/20 08:21:14;;;;;;;1.97;1.83;;;21.40;93.00;;;;;;5054652;28;20482;-71
2022/06/20 08:23:53;;;;;;;2.43;2.30;;;21.20;93.10;;;;;;5049406;28;20472;-70
2022/06/20 08:26:31;;;;;;;2.10;2.00;;;21.10;93.20;;;;;;5057931;28;20453;-71
2022/06/20 08:28:59;;;;;;;1.80;1.70;;;21.00;93.30;;;;;;5059979;28;20445;-70
2022/06/20 08:31:50;;;;;;;2.20;2.00;;;21.00;93.30;;;;;;5059482;28;20461;-70
2022/06/20 08:34:22;;;;;;;2.70;2.50;;;21.00;93.10;;;;;;5062263;28;20466;-70
2022/06/20 08:37:14;;;;;;;1.90;1.80;;;20.90;93.10;;;;;;5054641;28;20587;-71
2022/06/20 08:40:17;;;;;;;2.03;1.93;;;20.70;93.00;;;;;;5061884;28;20987;-70
2022/06/20 08:43:05;;;;;;;2.00;1.90;;;20.70;93.00;;;;;;5060927;28;20470;-71
2022/06/20 08:45:49;;;;;;;1.70;1.60;;;20.60;93.00;;;;;;5058041;28;20504;-71
2022/06/20 08:48:37;;;;;;;1.50;1.40;;;20.50;92.90;;;;;;5063172;28;20479;-69
2022/06/20 08:52:06;;;;;;;4.73;1.30;;;20.50;92.90;;;;;;5066809;28;20469;-68
2022/06/20 08:55:02;;;;;;;1.13;1.10;;;20.50;92.70;;;;;;5065166;28;20441;-70
2022/06/20 08:58:09;;;;;;;1.07;1.03;;;20.40;92.60;;;;;;5062502;28;20977;-70
2022/06/20 09:00:50;;;;;;;2.53;1.40;;;20.40;92.60;;;;;;4992880;28;20457;-70
2022/06/20 09:03:31;;;;;;;1.43;1.33;;;20.50;92.70;;;;;;5049013;28;20478;-70
2022/06/20 09:06:17;;;;;;;1.20;1.13;;;20.50;92.60;;;;;;5056819;28;20453;-71
2022/06/20 09:09:04;;;;;;;1.50;1.40;;;20.50;92.40;;;;;;5062424;28;20989;-70
2022/06/20 09:11:45;;;;;;;1.47;1.37;;;20.50;92.40;;;;;;5065112;28;20458;-70
2022/06/20 09:14:55;;;;;;;2.00;1.90;;;20.50;92.50;;;;;;5061173;28;20954;-70
2022/06/20 09:17:45;;;;;;;1.73;1.63;;;20.50;92.50;;;;;;5057784;28;20473;-70
2022/06/20 09:20:16;;;;;;;1.70;1.60;;;20.40;92.40;;;;;;5068353;28;20537;-70
2022/06/20 09:22:56;;;;;;;1.60;1.50;;;20.40;92.50;;;;;;5043329;28;20501;-70
2022/06/20 09:25:25;;;;;;;1.67;1.57;;;20.40;92.60;;;;;;5059717;28;20516;-70
2022/06/20 09:28:24;;;;;;;1.73;1.27;;;20.40;92.60;;;;;;5061970;28;20454;-71
2022/06/20 09:31:23;;;;;;;1.60;1.50;;;20.40;92.40;;;;;;5061453;28;20442;-70
2022/06/20 09:34:29;;;;;;;2.43;1.90;;;20.40;92.60;;;;;;5037322;28;20458;-70
2022/06/20 09:37:13;;;;;;;2.13;2.03;;;20.30;92.30;;;;;;5057997;28;20869;-69
2022/06/20 09:40:00;;;;;;;2.80;2.50;;;20.20;92.30;;;;;;5058717;28;20461;-71
2022/06/20 09:42:44;;;;;;;4.93;3.80;;;20.30;92.30;;;;;;5059282;28;20449;-71
2022/06/20 09:45:38;;;;;;;4.63;4.17;;;20.10;92.20;;;;;;5044137;28;20446;-70
2022/06/20 09:48:12;;;;;;;5.53;4.63;;;20.10;92.20;;;;;;5064634;28;20453;-69
2022/06/20 09:50:43;;;;;;;3.50;3.20;;;19.90;92.10;;;;;;5046237;28;20445;-70
2022/06/20 09:53:32;;;;;;;4.13;3.73;;;19.90;92.20;;;;;;5060663;28;20466;-69
2022/06/20 09:56:22;;;;;;;3.90;3.50;;;19.90;92.20;;;;;;5060774;28;20465;-70
2022/06/20 09:58:53;;;;;;;4.03;3.73;;;19.80;92.40;;;;;;5055307;28;20484;-70
2022/06/20 10:01:32;;;;;;;4.63;4.23;;;19.80;92.50;;;;;;5059880;28;20507;-69
2022/06/20 10:04:11;;;;;;;3.80;3.50;;;19.80;92.40;;;;;;5055191;28;20485;-70
2022/06/20 10:07:00;;;;;;;3.80;3.57;;;19.80;92.30;;;;;;5057693;28;20527;-70
2022/06/20 10:09:40;;;;;;;4.50;4.10;;;19.80;92.10;;;;;;5034774;28;20461;-70
2022/06/20 10:12:24;;;;;;;4.80;4.40;;;19.80;92.30;;;;;;5057736;28;20465;-70
2022/06/20 10:14:56;;;;;;;4.70;4.17;;;19.80;92.20;;;;;;5052672;28;20470;-70
2022/06/20 10:17:52;;;;;;;3.77;3.47;;;19.70;92.20;;;;;;5041181;28;20467;-70
2022/06/20 10:20:35;;;;;;;3.53;3.33;;;19.70;92.20;;;;;;5043406;28;20453;-70
2022/06/20 10:23:22;;;;;;;4.03;3.73;;;19.80;92.30;;;;;;5051882;28;20969;-70
2022/06/20 10:25:59;;;;;;;4.53;4.13;;;19.80;92.30;;;;;;5052956;28;20462;-71
2022/06/20 10:28:24;;;;;;;4.33;4.00;;;19.80;92.40;;;;;;5051968;28;20497;-70
2022/06/20 10:31:30;;;;;;;4.80;4.30;;;19.80;92.40;;;;;;5050338;28;20950;-70
2022/06/20 10:34:07;;;;;;;4.23;3.90;;;19.80;92.40;;;;;;5052151;28;20825;-70
2022/06/20 10:36:53;;;;;;;4.63;4.23;;;19.80;92.40;;;;;;5048042;28;20541;-71
2022/06/20 10:39:25;;;;;;;4.90;4.50;;;19.70;92.40;;;;;;5051325;28;21002;-70
2022/06/20 10:42:12;;;;;;;4.97;4.57;;;19.70;92.40;;;;;;5052792;28;20473;-70
2022/06/20 10:45:01;;;;;;;4.87;4.40;;;19.80;92.50;;;;;;5055474;28;20556;-70
2022/06/20 10:47:33;;;;;;;4.87;4.47;;;19.80;92.30;;;;;;5050549;28;20484;-69
2022/06/20 10:50:08;;;;;;;5.20;4.80;;;19.80;92.30;;;;;;5036378;28;20830;-70
2022/06/20 10:53:05;;;;;;;5.13;4.37;;;19.70;92.10;;;;;;5051074;28;20480;-70
2022/06/20 10:55:37;;;;;;;4.67;4.17;;;19.70;92.30;;;;;;5056656;28;20453;-71
2022/06/20 10:58:13;;;;;;;4.97;4.57;;;19.70;92.30;;;;;;5052722;28;20847;-70
2022/06/20 11:00:45;;;;;;;4.97;4.57;;;19.60;92.40;;;;;;5053440;28;20831;-70
2022/06/20 11:03:43;;;;;;;4.57;4.17;;;19.60;92.40;;;;;;5054754;28;20536;-69
2022/06/20 11:06:24;;;;;;;5.83;5.33;;;19.50;92.50;;;;;;5051112;28;20480;-70
2022/06/20 11:09:11;;;;;;;5.30;4.83;;;19.50;92.60;;;;;;5036369;28;21096;-70
2022/06/20 11:11:55;;;;;;;4.50;4.10;;;19.50;92.70;;;;;;5055064;28;21036;-70
2022/06/20 11:14:43;;;;;;;6.57;5.53;;;19.60;92.70;;;;;;5057761;28;20483;-70
2022/06/20 11:17:30;;;;;;;6.10;5.23;;;19.70;92.60;;;;;;5061151;28;20456;-70
2022/06/20 11:20:11;;;;;;;7.70;5.30;;;19.60;92.60;;;;;;5056462;28;20983;-70
2022/06/20 11:22:38;;;;;;;5.63;5.20;;;19.60;92.60;;;;;;5054333;28;20449;-70
2022/06/20 11:25:26;;;;;;;7.10;5.53;;;19.60;92.70;;;;;;5051959;28;20442;-70
2022/06/20 11:28:12;;;;;;;4.60;4.20;;;19.60;92.60;;;;;;5035719;28;20461;-71
2022/06/20 11:30:48;;;;;;;5.93;3.67;;;19.70;92.50;;;;;;5054135;28;20469;-70
2022/06/20 11:33:22;;;;;;;4.27;3.87;;;19.80;92.40;;;;;;5059548;28;20477;-69
2022/06/20 11:36:12;;;;;;;3.40;3.20;;;19.80;92.00;;;;;;5052518;28;20457;-70
2022/06/20 11:38:49;;;;;;;2.93;2.70;;;19.70;92.00;;;;;;5030689;28;20853;-70
2022/06/20 11:41:37;;;;;;;3.33;2.67;;;19.60;91.90;;;;;;5052450;28;20469;-70
2022/06/20 11:44:30;;;;;;;2.30;2.20;;;19.80;92.10;;;;;;5054213;28;20523;-69
2022/06/20 11:47:21;;;;;;;2.33;2.23;;;19.80;92.00;;;;;;5040233;28;20836;-70
2022/06/20 11:50:01;;;;;;;2.50;2.30;;;19.80;92.20;;;;;;5051027;28;20440;-70
2022/06/20 11:52:56;;;;;;;3.30;3.10;;;19.90;92.10;;;;;;5053606;28;20960;-70
2022/06/20 11:55:47;;;;;;;3.30;2.90;;;19.90;92.00;;;;;;5044118;28;20473;-71
2022/06/20 11:58:35;;;;;;;3.27;3.00;;;20.00;92.10;;;;;;5059644;28;20561;-69
2022/06/20 12:01:16;;;;;;;3.37;3.03;;;20.10;92.10;;;;;;5047225;28;20468;-70
2022/06/20 12:03:45;;;;;;;2.20;2.10;;;20.20;91.90;;;;;;5058851;28;20449;-71
2022/06/20 12:06:19;;;;;;;2.23;2.00;;;20.20;91.40;;;;;;5053178;28;20500;-70
2022/06/20 12:09:05;;;;;;;2.20;1.90;;;20.20;90.80;;;;;;5059434;28;20601;-70
2022/06/20 12:11:30;;;;;;;1.60;1.50;;;20.00;90.90;;;;;;5063316;28;20484;-70
2022/06/20 12:14:05;;;;;;;1.80;1.57;;;20.00;90.80;;;;;;5045054;28;20554;-69
2022/06/20 12:16:37;;;;;;;1.90;1.80;;;20.00;90.50;;;;;;5044648;28;20238;-70
2022/06/20 12:25:32;;;;;;;1.90;1.30;;;20.10;90.40;;;;;;5056017;28;20957;-70
2022/06/20 12:27:58;;;;;;;1.47;1.30;;;20.10;90.20;;;;;;5064833;28;20492;-70
2022/06/20 12:30:24;;;;;;;3.13;1.40;;;20.10;90.10;;;;;;5065582;28;20469;-70
2022/06/20 12:32:53;;;;;;;1.40;1.30;;;20.10;90.10;;;;;;5053047;28;20235;-70
2022/06/20 12:35:37;;;;;;;1.40;1.30;;;20.20;90.30;;;;;;5060309;28;20267;-71
2022/06/20 12:38:21;;;;;;;1.30;1.30;;;20.20;90.30;;;;;;5064361;28;20466;-68
2022/06/20 12:40:55;;;;;;;1.50;1.40;;;20.30;90.00;;;;;;5057934;28;20452;-70
2022/06/20 12:43:44;;;;;;;1.40;1.30;;;20.20;89.80;;;;;;5066221;28;20466;-70
2022/06/20 12:46:22;;;;;;;1.57;1.47;;;20.20;90.00;;;;;;5062947;28;20457;-70
2022/06/20 12:49:27;;;;;;;1.70;1.60;;;20.30;90.00;;;;;;5062501;28;20449;-70
2022/06/20 12:52:08;;;;;;;1.33;1.23;;;20.20;90.00;;;;;;5056389;28;20465;-70
2022/06/20 12:54:44;;;;;;;3.13;1.60;;;20.30;90.20;;;;;;5050292;28;20445;-69
2022/06/20 12:57:25;;;;;;;1.13;1.13;;;20.30;89.50;;;;;;5065514;28;20461;-69
2022/06/20 13:00:12;;;;;;;1.27;1.27;;;20.30;90.00;;;;;;5043245;28;20452;-70
2022/06/20 13:02:47;;;;;;;1.60;1.50;;;20.50;90.00;;;;;;5067218;28;20450;-70
2022/06/20 13:05:15;;;;;;;1.20;1.10;;;20.60;89.00;;;;;;5044887;28;20449;-70
2022/06/20 13:08:00;;;;;;;1.37;1.30;;;20.50;88.80;;;;;;5064911;28;20523;-70
2022/06/20 13:10:40;;;;;;;1.03;1.03;;;20.40;87.40;;;;;;5065992;28;20453;-71
2022/06/20 13:13:18;;;;;;;1.33;1.23;;;20.20;87.10;;;;;;5066513;28;20993;-70
2022/06/20 13:16:09;;;;;;;1.23;1.00;;;20.20;86.80;;;;;;5059872;28;20538;-70
2022/06/20 13:18:50;;;;;;;1.50;0.90;;;20.20;85.50;;;;;;5068382;28;20489;-69
2022/06/20 13:21:23;;;;;;;0.97;0.90;;;20.20;84.40;;;;;;5059100;28;20461;-70
2022/06/20 13:24:08;;;;;;;0.90;0.90;;;20.10;85.60;;;;;;5048587;28;20873;-71
2022/06/20 13:27:01;;;;;;;2.37;1.07;;;20.10;84.90;;;;;;5063433;28;20454;-70
2022/06/20 13:29:44;;;;;;;0.70;0.70;;;20.10;84.80;;;;;;5039105;28;20985;-70
2022/06/20 13:32:19;;;;;;;0.97;0.97;;;20.10;85.00;;;;;;5059108;28;20549;-70
2022/06/20 13:34:50;;;;;;;0.90;0.90;;;20.20;84.20;;;;;;5036948;28;20464;-69
2022/06/20 13:37:46;;;;;;;0.90;0.90;;;20.20;83.80;;;;;;5054432;28;20464;-70
2022/06/20 13:40:18;;;;;;;0.60;0.60;;;20.20;82.40;;;;;;5053828;28;20552;-70
2022/06/20 13:43:02;;;;;;;3.50;0.90;;;20.20;82.10;;;;;;5054614;28;20458;-70
2022/06/20 13:45:34;;;;;;;0.80;0.80;;;20.10;81.70;;;;;;5055326;28;20950;-70
2022/06/20 13:48:20;;;;;;;0.77;0.73;;;20.10;79.80;;;;;;5041899;28;20882;-70
2022/06/20 13:50:52;;;;;;;1.00;0.87;;;20.20;80.40;;;;;;5055329;28;20469;-70
2022/06/20 13:53:44;;;;;;;0.63;0.63;;;20.30;80.80;;;;;;5053564;28;20490;-70